Rock Tavern, New York
Current Conditions -  °F | °C
As of 9:45 PM on Monday 26 Jan 2015 (Local Time) from KSWF Reporting Station
Haze Haze  
Wind Chill:   Ceiling: 2000
Heat Index: 19°   Visibility: 4mi
Dew Point: 16°   Wind: 15mph
Humidity: 86%   Direction: 40°NE
Pressure: 29.84"   Gusts: 25mph
Location:  41.47°N, 74.15°W
Report Text: KSWF 270245Z 04013G22KT 4SM BR OVC020 M07/M09 A2984
Loading
Personal Weather Stations






























Interactive Weather Map New forecast layout! Learn more

10-Day Weather Forecast

Advertisements
Track Severe Weather on mobile